createdAt,value
2018-12-10T00:01:56.662Z,5.40
2018-12-10T00:04:25.026Z,5.40
2018-12-10T00:06:53.653Z,5.30
2018-12-10T00:09:21.934Z,5.30
2018-12-10T00:11:51.331Z,5.30
2018-12-10T00:14:19.690Z,5.30
2018-12-10T00:16:48.138Z,5.30
2018-12-10T00:19:16.580Z,5.20
2018-12-10T00:21:45.101Z,5.30
2018-12-10T00:24:13.500Z,5.20
2018-12-10T00:26:41.837Z,5.10
2018-12-10T00:29:10.123Z,5.10
2018-12-10T00:31:38.397Z,5.00
2018-12-10T00:34:07.060Z,5.00
2018-12-10T00:36:35.340Z,4.90
2018-12-10T00:39:06.131Z,4.80
2018-12-10T00:41:34.468Z,4.80
2018-12-10T00:44:05.438Z,4.70
2018-12-10T00:46:35.671Z,4.70
2018-12-10T00:49:05.660Z,4.70
2018-12-10T00:51:33.920Z,4.70
2018-12-10T00:54:04.327Z,4.70
2018-12-10T00:56:34.305Z,4.70
2018-12-10T00:59:02.624Z,4.70
2018-12-10T01:01:30.978Z,4.70
2018-12-10T01:04:00.582Z,4.70
2018-12-10T01:06:28.906Z,4.70
2018-12-10T01:08:57.201Z,4.80
2018-12-10T01:11:27.452Z,4.80
2018-12-10T01:13:58.048Z,4.80
2018-12-10T01:16:26.648Z,4.80
2018-12-10T01:18:55.025Z,4.80
2018-12-10T01:21:24.297Z,4.90
2018-12-10T01:23:52.890Z,5.00
2018-12-10T01:26:21.274Z,5.00
2018-12-10T01:28:52.310Z,5.00
2018-12-10T01:31:22.065Z,5.00
2018-12-10T01:33:52.979Z,5.00
2018-12-10T01:36:25.416Z,5.00
2018-12-10T01:38:53.698Z,4.90
2018-12-10T01:41:23.664Z,4.80
2018-12-10T01:43:52.230Z,4.70
2018-12-10T01:46:20.610Z,4.60
2018-12-10T01:48:48.984Z,4.60
2018-12-10T01:51:17.441Z,4.50
2018-12-10T01:53:45.740Z,4.40
2018-12-10T01:56:16.188Z,4.50
2018-12-10T01:58:44.648Z,4.40
2018-12-10T02:01:14.864Z,4.40
2018-12-10T02:03:43.403Z,4.40
2018-12-10T02:06:11.702Z,4.50
2018-12-10T02:08:43.604Z,4.40
2018-12-10T02:11:11.923Z,4.40
2018-12-10T02:13:41.643Z,4.30
2018-12-10T02:16:10.012Z,4.50
2018-12-10T02:18:38.362Z,4.60
2018-12-10T02:21:06.660Z,4.70
2018-12-10T02:23:35.102Z,4.80
2018-12-10T02:26:03.496Z,4.80
2018-12-10T02:28:37.229Z,4.80
2018-12-10T02:31:05.650Z,4.80
2018-12-10T02:33:33.933Z,4.80
2018-12-10T02:36:02.381Z,4.70
2018-12-10T02:38:32.263Z,4.60
2018-12-10T02:41:01.531Z,4.50
2018-12-10T02:43:31.194Z,4.30
2018-12-10T02:46:32.141Z,4.30
2018-12-10T02:49:00.559Z,4.20
2018-12-10T02:51:30.728Z,4.20
2018-12-10T02:53:59.040Z,4.20
2018-12-10T02:56:29.937Z,4.20
2018-12-10T02:58:58.945Z,4.10
2018-12-10T03:01:28.448Z,4.10
2018-12-10T03:03:56.934Z,4.00
2018-12-10T03:06:25.313Z,3.90
2018-12-10T03:08:53.628Z,3.80
2018-12-10T03:11:23.768Z,3.70
2018-12-10T03:13:52.261Z,3.70
2018-12-10T03:16:22.850Z,3.50
2018-12-10T03:18:51.120Z,3.40
2018-12-10T03:21:19.440Z,3.40
2018-12-10T03:23:47.797Z,3.30
2018-12-10T03:26:16.243Z,3.20
2018-12-10T03:28:44.548Z,3.20
2018-12-10T03:31:12.849Z,3.20
2018-12-10T03:33:41.316Z,3.10
2018-12-10T03:36:09.573Z,3.00
2018-12-10T03:38:37.866Z,3.10
2018-12-10T03:41:07.685Z,3.20
2018-12-10T03:43:35.982Z,3.20
2018-12-10T03:46:04.312Z,3.30
2018-12-10T03:48:35.694Z,3.40
2018-12-10T03:51:04.012Z,3.40
2018-12-10T03:53:33.379Z,3.40
2018-12-10T03:56:01.832Z,3.40
2018-12-10T03:58:31.629Z,3.40
2018-12-10T04:00:59.911Z,3.40
2018-12-10T04:03:28.301Z,3.40
2018-12-10T04:05:56.596Z,3.40
2018-12-10T04:08:24.952Z,3.50
2018-12-10T04:10:53.296Z,3.50
2018-12-10T04:13:22.335Z,3.40
2018-12-10T04:15:50.993Z,3.40
2018-12-10T04:18:19.296Z,3.40
2018-12-10T04:20:47.572Z,3.30
2018-12-10T04:23:15.941Z,3.30
2018-12-10T04:25:44.267Z,3.30
2018-12-10T04:28:12.543Z,3.30
2018-12-10T04:30:40.818Z,3.30
2018-12-10T04:33:09.143Z,3.40
2018-12-10T04:35:37.428Z,3.50
2018-12-10T04:38:05.693Z,3.60
2018-12-10T04:40:33.972Z,3.60
2018-12-10T04:43:02.281Z,3.50
2018-12-10T04:45:30.654Z,3.40
2018-12-10T04:47:59.551Z,3.30
2018-12-10T04:50:27.859Z,3.30
2018-12-10T04:52:56.322Z,3.30
2018-12-10T04:55:24.616Z,3.30
2018-12-10T04:57:52.941Z,3.20
2018-12-10T05:00:21.239Z,3.10
2018-12-10T05:02:49.535Z,3.10
2018-12-10T05:05:17.848Z,3.00
2018-12-10T05:07:46.119Z,3.10
2018-12-10T05:10:14.443Z,3.10
2018-12-10T05:12:42.713Z,3.10
2018-12-10T05:15:10.996Z,3.10
2018-12-10T05:17:39.264Z,3.20
2018-12-10T05:20:07.549Z,3.30
2018-12-10T05:22:35.816Z,3.30
2018-12-10T05:25:04.337Z,3.30
2018-12-10T05:27:33.272Z,3.20
2018-12-10T05:30:01.544Z,3.20
2018-12-10T05:32:29.824Z,3.20
2018-12-10T05:34:58.144Z,3.20
2018-12-10T05:37:26.510Z,3.30
2018-12-10T05:39:54.787Z,3.40
2018-12-10T05:42:23.847Z,3.40
2018-12-10T05:44:52.133Z,3.50
2018-12-10T05:47:20.383Z,3.60
2018-12-10T05:49:48.700Z,3.70
2018-12-10T05:52:16.994Z,3.70
2018-12-10T05:54:45.270Z,3.70
2018-12-10T05:57:13.592Z,3.70
2018-12-10T05:59:41.896Z,3.60
2018-12-10T06:02:12.179Z,3.50
2018-12-10T06:04:40.441Z,3.50
2018-12-10T06:07:08.912Z,3.40
2018-12-10T06:09:38.455Z,3.30
2018-12-10T06:12:11.398Z,3.30
2018-12-10T06:14:40.115Z,3.30
2018-12-10T06:17:08.641Z,3.30
2018-12-10T06:19:37.278Z,3.40
2018-12-10T06:22:07.564Z,3.50
2018-12-10T06:24:36.534Z,3.60
2018-12-10T06:27:04.996Z,3.70
2018-12-10T06:29:33.367Z,3.80
2018-12-10T06:32:01.733Z,3.90
2018-12-10T06:34:30.104Z,3.80
2018-12-10T06:36:58.415Z,3.80
2018-12-10T06:39:26.680Z,3.70
2018-12-10T06:41:55.055Z,3.70
2018-12-10T06:44:23.477Z,3.70
2018-12-10T06:46:51.753Z,3.70
2018-12-10T06:49:20.100Z,3.70
2018-12-10T06:51:48.507Z,3.70
2018-12-10T06:54:16.880Z,3.70
2018-12-10T06:56:45.253Z,3.80
2018-12-10T06:59:13.586Z,3.70
2018-12-10T07:01:41.971Z,3.80
2018-12-10T07:04:10.356Z,3.80
2018-12-10T07:06:38.639Z,3.80
2018-12-10T07:09:07.376Z,3.80
2018-12-10T07:11:35.731Z,3.80
2018-12-10T07:14:04.300Z,3.90
2018-12-10T07:16:32.752Z,3.90
2018-12-10T07:19:01.118Z,3.90
2018-12-10T07:21:29.433Z,4.00
2018-12-10T07:23:57.685Z,4.10
2018-12-10T07:26:26.098Z,4.10
2018-12-10T07:28:54.504Z,3.90
2018-12-10T07:31:22.889Z,3.80
2018-12-10T07:33:51.263Z,3.70
2018-12-10T07:36:19.587Z,3.60
2018-12-10T07:38:47.986Z,3.40
2018-12-10T07:41:16.263Z,3.40
2018-12-10T07:43:44.648Z,3.30
2018-12-10T07:46:12.922Z,3.30
2018-12-10T07:48:41.194Z,3.20
2018-12-10T07:51:09.450Z,3.30
2018-12-10T07:53:37.836Z,3.40
2018-12-10T07:56:06.156Z,3.40
2018-12-10T07:58:34.476Z,3.40
2018-12-10T08:01:02.769Z,3.50
2018-12-10T08:03:31.033Z,3.50
2018-12-10T08:05:59.384Z,3.50
2018-12-10T08:08:27.757Z,3.50
2018-12-10T08:10:56.036Z,3.50
2018-12-10T08:13:24.352Z,3.60
2018-12-10T08:15:52.644Z,3.80
2018-12-10T08:18:20.907Z,3.90
2018-12-10T08:20:49.341Z,4.10
2018-12-10T08:23:17.628Z,4.30
2018-12-10T08:25:45.969Z,4.40
2018-12-10T08:28:14.303Z,4.50
2018-12-10T08:30:42.752Z,4.60
2018-12-10T08:33:11.014Z,4.70
2018-12-10T08:38:09.535Z,4.70
2018-12-10T08:40:37.947Z,4.70
2018-12-10T08:43:06.240Z,4.60
2018-12-10T08:45:34.549Z,4.60
2018-12-10T08:48:02.928Z,4.60
2018-12-10T08:50:31.235Z,4.60
2018-12-10T08:52:59.501Z,4.60
2018-12-10T08:55:27.940Z,4.60
2018-12-10T08:57:56.202Z,4.70
2018-12-10T09:00:24.448Z,4.70
2018-12-10T09:02:52.829Z,4.80
2018-12-10T09:05:21.192Z,4.80
2018-12-10T09:07:49.484Z,4.80
2018-12-10T09:10:17.797Z,5.00
2018-12-10T09:12:47.079Z,5.20
2018-12-10T09:15:15.877Z,5.30
2018-12-10T09:17:44.236Z,5.40
2018-12-10T09:20:12.648Z,5.50
2018-12-10T09:22:41.032Z,5.60
2018-12-10T09:25:09.407Z,5.60
2018-12-10T09:27:37.715Z,5.60
2018-12-10T09:30:09.017Z,5.60
2018-12-10T09:32:37.304Z,5.70
2018-12-10T09:35:05.632Z,5.70
2018-12-10T09:37:33.905Z,5.80
2018-12-10T09:40:02.164Z,5.80
2018-12-10T09:42:30.444Z,5.80
2018-12-10T09:44:58.700Z,5.90
2018-12-10T09:47:26.963Z,6.00
2018-12-10T09:49:55.250Z,6.00
2018-12-10T09:52:23.577Z,6.00
2018-12-10T09:54:51.811Z,6.00
2018-12-10T09:57:20.116Z,6.10
2018-12-10T09:59:48.397Z,6.10
2018-12-10T10:02:16.748Z,6.10
2018-12-10T10:04:45.195Z,6.20
2018-12-10T10:07:13.520Z,6.10
2018-12-10T10:09:41.990Z,6.10
2018-12-10T10:12:10.273Z,6.00
2018-12-10T10:14:38.596Z,6.00
2018-12-10T10:17:06.863Z,6.00
2018-12-10T10:19:35.232Z,6.00
2018-12-10T10:22:03.568Z,5.90
2018-12-10T10:24:31.917Z,5.90
2018-12-10T10:27:00.218Z,6.00
2018-12-10T10:29:28.496Z,6.10
2018-12-10T10:31:56.740Z,6.20
2018-12-10T10:34:25.049Z,6.10
2018-12-10T10:36:53.309Z,6.10
2018-12-10T10:39:21.610Z,6.10
2018-12-10T10:41:49.890Z,6.00
2018-12-10T10:44:18.159Z,5.90
2018-12-10T10:46:46.565Z,5.80
2018-12-10T10:49:14.924Z,5.80
2018-12-10T10:51:44.036Z,5.80
2018-12-10T10:54:12.438Z,6.00
2018-12-10T10:56:40.808Z,6.00
2018-12-10T10:59:09.080Z,6.20
2018-12-10T11:03:43.623Z,6.30
2018-12-10T11:06:11.895Z,6.60
2018-12-10T11:08:40.157Z,6.80
2018-12-10T11:11:08.557Z,6.80
2018-12-10T11:13:36.836Z,6.80
2018-12-10T11:16:05.237Z,6.70
2018-12-10T11:18:33.540Z,6.70
2018-12-10T11:21:01.829Z,6.70
2018-12-10T11:23:30.189Z,6.70
2018-12-10T11:25:58.737Z,6.60
2018-12-10T11:28:27.084Z,6.60
2018-12-10T11:30:55.412Z,6.60
2018-12-10T11:33:23.746Z,6.60
2018-12-10T11:35:52.089Z,6.60
2018-12-10T11:38:20.420Z,6.60
2018-12-10T11:40:48.705Z,6.70
2018-12-10T11:43:16.961Z,6.80
2018-12-10T11:45:45.256Z,6.90
2018-12-10T11:48:13.559Z,6.80
2018-12-10T11:50:41.836Z,6.70
2018-12-10T11:53:10.073Z,6.70
2018-12-10T11:55:38.467Z,6.60
2018-12-10T11:58:06.866Z,6.40
2018-12-10T12:00:35.126Z,6.20
2018-12-10T12:03:03.548Z,6.10
2018-12-10T12:05:31.882Z,6.10
2018-12-10T12:08:00.160Z,6.00
2018-12-10T12:10:28.456Z,5.90
2018-12-10T12:12:56.865Z,6.00
2018-12-10T12:15:25.277Z,6.00
2018-12-10T12:17:53.632Z,6.00
2018-12-10T12:20:21.977Z,6.00
2018-12-10T12:22:50.280Z,6.00
2018-12-10T12:25:18.617Z,5.90
2018-12-10T12:27:46.876Z,5.90
2018-12-10T12:30:15.242Z,5.80
2018-12-10T12:32:43.521Z,5.80
2018-12-10T12:35:11.812Z,5.80
2018-12-10T12:37:40.075Z,5.80
2018-12-10T12:40:08.480Z,5.90
2018-12-10T12:42:36.785Z,6.00
2018-12-10T12:45:05.463Z,6.10
2018-12-10T12:47:33.777Z,6.00
2018-12-10T12:50:02.096Z,6.00
2018-12-10T12:52:30.425Z,6.00
2018-12-10T12:54:58.782Z,6.00
2018-12-10T12:57:27.154Z,6.00
2018-12-10T12:59:55.393Z,5.80
2018-12-10T13:02:23.659Z,5.80
2018-12-10T13:04:51.921Z,5.80
2018-12-10T13:07:20.231Z,5.70
2018-12-10T13:09:48.498Z,5.70
2018-12-10T13:12:16.769Z,5.70
2018-12-10T13:14:45.094Z,5.70
2018-12-10T13:17:13.436Z,5.70
2018-12-10T13:19:41.754Z,5.80
2018-12-10T13:22:10.077Z,5.90
2018-12-10T13:24:38.400Z,6.00
2018-12-10T13:27:06.648Z,6.00
2018-12-10T13:29:34.926Z,6.00
2018-12-10T13:32:03.403Z,6.10
2018-12-10T13:34:31.795Z,6.10
2018-12-10T13:37:00.075Z,6.10
2018-12-10T13:39:28.460Z,6.10
2018-12-10T13:41:56.765Z,6.10
2018-12-10T13:44:29.938Z,6.00
2018-12-10T13:47:01.818Z,5.90
2018-12-10T13:49:30.147Z,5.90
2018-12-10T13:51:58.397Z,5.80
2018-12-10T13:54:26.693Z,5.80
2018-12-10T13:56:55.046Z,5.70
2018-12-10T13:59:23.324Z,5.60
2018-12-10T14:01:52.290Z,5.60
2018-12-10T14:04:24.987Z,5.50
2018-12-10T14:06:53.333Z,5.60
2018-12-10T14:09:21.609Z,5.50
2018-12-10T14:11:49.891Z,5.40
2018-12-10T14:14:18.241Z,5.40
2018-12-10T14:16:46.563Z,5.40
2018-12-10T14:19:14.844Z,5.40
2018-12-10T14:21:43.206Z,5.40
2018-12-10T14:24:11.596Z,5.40
2018-12-10T14:26:39.903Z,5.40
2018-12-10T14:29:08.324Z,5.30
2018-12-10T14:31:36.600Z,5.30
2018-12-10T14:34:39.516Z,5.20
2018-12-10T14:37:07.908Z,5.10
2018-12-10T14:39:36.184Z,5.10
2018-12-10T14:42:06.289Z,5.10
2018-12-10T14:44:41.371Z,5.10
2018-12-10T14:47:09.746Z,5.00
2018-12-10T14:49:37.987Z,5.00
2018-12-10T14:52:06.289Z,5.00
2018-12-10T14:54:34.684Z,5.00
2018-12-10T14:57:03.272Z,5.00
2018-12-10T14:59:31.543Z,5.00
2018-12-10T15:01:59.893Z,5.00
2018-12-10T15:04:28.156Z,5.00
2018-12-10T15:06:56.429Z,4.90
2018-12-10T15:09:24.675Z,4.80
2018-12-10T15:11:53.013Z,4.70
2018-12-10T15:14:21.889Z,4.60
2018-12-10T15:16:51.199Z,4.50
2018-12-10T15:19:19.803Z,4.40
2018-12-10T15:21:48.074Z,4.20
2018-12-10T15:24:16.320Z,4.20
2018-12-10T15:26:44.591Z,4.10
2018-12-10T15:29:12.881Z,4.10
2018-12-10T15:31:41.305Z,4.20
2018-12-10T15:34:10.511Z,4.30
2018-12-10T15:36:39.281Z,4.50
2018-12-10T15:39:07.728Z,4.60
2018-12-10T15:41:36.313Z,4.60
2018-12-10T15:44:04.785Z,4.70
2018-12-10T15:46:33.051Z,4.70
2018-12-10T15:49:01.332Z,4.60
2018-12-10T15:51:29.588Z,4.60
2018-12-10T15:53:57.889Z,4.50
2018-12-10T15:56:26.148Z,4.50
2018-12-10T15:58:54.424Z,4.50
2018-12-10T16:01:23.420Z,4.50
2018-12-10T16:03:51.869Z,4.50
2018-12-10T16:06:20.218Z,4.50
2018-12-10T16:08:49.134Z,4.50
2018-12-10T16:11:18.088Z,4.40
2018-12-10T16:13:46.380Z,4.30
2018-12-10T16:16:14.682Z,4.20
2018-12-10T16:18:43.795Z,4.10
2018-12-10T16:21:12.063Z,4.10
2018-12-10T16:23:40.339Z,4.00
2018-12-10T16:26:08.709Z,4.00
2018-12-10T16:28:36.998Z,4.10
2018-12-10T16:31:05.377Z,4.20
2018-12-10T16:33:34.449Z,4.20
2018-12-10T16:36:03.144Z,4.30
2018-12-10T16:38:31.628Z,4.20
2018-12-10T16:40:59.951Z,4.30
2018-12-10T16:43:28.209Z,4.40
2018-12-10T16:45:56.485Z,4.40
2018-12-10T16:48:24.784Z,4.40
2018-12-10T16:50:53.117Z,4.40
2018-12-10T16:53:21.427Z,4.50
2018-12-10T16:55:49.680Z,4.50
2018-12-10T16:58:18.093Z,4.40
2018-12-10T17:00:46.365Z,4.40
2018-12-10T17:03:14.630Z,4.40
2018-12-10T17:05:42.985Z,4.40
2018-12-10T17:08:11.360Z,4.30
2018-12-10T17:10:39.811Z,4.30
2018-12-10T17:13:08.135Z,4.40
2018-12-10T17:15:36.517Z,4.30
2018-12-10T17:18:04.900Z,4.30
2018-12-10T17:20:33.235Z,4.30
2018-12-10T17:23:01.518Z,4.30
2018-12-10T17:25:29.816Z,4.30
2018-12-10T17:27:58.287Z,4.20
2018-12-10T17:30:26.581Z,4.20
2018-12-10T17:32:54.955Z,4.20
2018-12-10T17:35:23.232Z,4.20
2018-12-10T17:37:51.484Z,4.20
2018-12-10T17:40:19.806Z,4.10
2018-12-10T17:42:48.159Z,4.10
2018-12-10T17:45:16.442Z,4.10
2018-12-10T17:47:44.699Z,4.10
2018-12-10T17:50:13.730Z,4.10
2018-12-10T17:52:42.020Z,4.10
2018-12-10T17:55:10.813Z,4.10
2018-12-10T17:57:39.072Z,4.10
2018-12-10T18:00:10.149Z,4.10
2018-12-10T18:02:38.434Z,4.10
2018-12-10T18:05:07.219Z,4.10
2018-12-10T18:07:35.497Z,4.20
2018-12-10T18:10:04.677Z,4.20
2018-12-10T18:12:32.952Z,4.20
2018-12-10T18:15:01.369Z,4.20
2018-12-10T18:17:29.692Z,4.20
2018-12-10T18:19:58.060Z,4.20
2018-12-10T18:22:26.523Z,4.20
2018-12-10T18:24:54.887Z,4.30
2018-12-10T18:27:23.204Z,4.30
2018-12-10T18:29:51.467Z,4.30
2018-12-10T18:32:19.947Z,4.10
2018-12-10T18:34:48.245Z,3.80
2018-12-10T18:37:16.620Z,3.60
2018-12-10T18:39:45.736Z,3.50
2018-12-10T18:42:14.278Z,3.30
2018-12-10T18:44:42.606Z,3.10
2018-12-10T18:47:10.867Z,3.00
2018-12-10T18:49:39.138Z,2.80
2018-12-10T18:52:07.412Z,2.70
2018-12-10T18:54:35.720Z,2.50
2018-12-10T18:57:03.999Z,2.50
2018-12-10T18:59:32.485Z,2.50
2018-12-10T19:02:00.967Z,2.60
2018-12-10T19:04:29.288Z,2.70
2018-12-10T19:06:57.569Z,2.80
2018-12-10T19:09:25.961Z,2.80
2018-12-10T19:11:54.282Z,2.80
2018-12-10T19:14:22.649Z,2.90
2018-12-10T19:16:51.032Z,3.10
2018-12-10T19:19:19.385Z,3.10
2018-12-10T19:21:47.863Z,3.20
2018-12-10T19:24:16.442Z,3.20
2018-12-10T19:26:45.128Z,3.20
2018-12-10T19:29:13.739Z,3.20
2018-12-10T19:31:42.300Z,3.20
2018-12-10T19:34:10.793Z,3.20
2018-12-10T19:36:39.725Z,3.20
2018-12-10T19:39:08.396Z,3.20
2018-12-10T19:41:37.216Z,3.20
2018-12-10T19:44:05.897Z,3.20
2018-12-10T19:46:34.285Z,3.30
2018-12-10T19:49:02.783Z,3.30
2018-12-10T19:51:31.096Z,3.30
2018-12-10T19:53:59.381Z,3.40
2018-12-10T19:56:27.886Z,3.30
2018-12-10T19:58:56.421Z,3.30
2018-12-10T20:01:24.694Z,3.20
2018-12-10T20:03:53.075Z,3.10
2018-12-10T20:06:26.782Z,3.10
2018-12-10T20:08:55.113Z,3.20
2018-12-10T20:11:23.453Z,3.20
2018-12-10T20:13:51.841Z,3.10
2018-12-10T20:16:20.211Z,3.00
2018-12-10T20:18:48.906Z,3.00
2018-12-10T20:21:17.472Z,3.00
2018-12-10T20:23:45.836Z,3.10
2018-12-10T20:26:14.467Z,3.20
2018-12-10T20:28:43.529Z,3.10
2018-12-10T20:31:11.941Z,3.10
2018-12-10T20:33:40.504Z,3.00
2018-12-10T20:36:08.828Z,3.00
2018-12-10T20:38:37.364Z,3.00
2018-12-10T20:41:05.623Z,2.90
2018-12-10T20:43:34.043Z,2.80
2018-12-10T20:46:02.419Z,2.80
2018-12-10T20:48:31.055Z,2.70
2018-12-10T20:50:59.706Z,2.80
2018-12-10T20:53:28.120Z,2.90
2018-12-10T20:55:56.433Z,3.00
2018-12-10T20:58:24.827Z,3.00
2018-12-10T21:00:53.295Z,3.00
2018-12-10T21:03:21.574Z,3.00
2018-12-10T21:05:55.142Z,3.00
2018-12-10T21:08:23.419Z,3.00
2018-12-10T21:10:51.734Z,3.00
2018-12-10T21:13:21.010Z,3.00
2018-12-10T21:15:49.354Z,3.10
2018-12-10T21:18:17.738Z,3.10
2018-12-10T21:20:46.516Z,3.10
2018-12-10T21:23:15.049Z,3.10
2018-12-10T21:25:43.551Z,3.30
2018-12-10T21:28:12.240Z,3.30
2018-12-10T21:30:40.627Z,3.30
2018-12-10T21:33:09.012Z,3.30
2018-12-10T21:35:37.279Z,3.30
2018-12-10T21:38:05.560Z,3.20
2018-12-10T21:40:33.932Z,3.20
2018-12-10T21:43:02.331Z,3.20
2018-12-10T21:45:30.685Z,3.20
2018-12-10T21:47:59.087Z,3.10
2018-12-10T21:50:27.535Z,3.10
2018-12-10T21:52:55.825Z,3.10
2018-12-10T21:55:24.199Z,3.20
2018-12-10T21:57:52.683Z,3.20
2018-12-10T22:00:21.056Z,3.20
2018-12-10T22:02:49.516Z,3.30
2018-12-10T22:05:17.816Z,3.40
2018-12-10T22:07:46.221Z,3.40
2018-12-10T22:10:14.570Z,3.40
2018-12-10T22:12:42.867Z,3.40
2018-12-10T22:15:11.250Z,3.40
2018-12-10T22:17:39.583Z,3.40
2018-12-10T22:20:08.031Z,3.30
2018-12-10T22:22:36.314Z,3.20
2018-12-10T22:25:05.369Z,3.10
2018-12-10T22:27:33.800Z,3.10
2018-12-10T22:30:02.109Z,3.00
2018-12-10T22:32:30.456Z,3.20
2018-12-10T22:34:58.759Z,3.20
2018-12-10T22:37:27.391Z,3.20
2018-12-10T22:39:55.768Z,3.10
2018-12-10T22:42:24.137Z,3.10
2018-12-10T22:44:52.412Z,3.10
2018-12-10T22:47:20.686Z,3.10
2018-12-10T22:49:49.008Z,3.10
2018-12-10T22:52:17.363Z,3.10
2018-12-10T22:54:45.832Z,3.10
2018-12-10T22:57:14.126Z,3.10
2018-12-10T22:59:42.464Z,3.10
2018-12-10T23:02:10.724Z,3.00
2018-12-10T23:04:39.057Z,3.10
2018-12-10T23:07:08.333Z,3.20
2018-12-10T23:09:36.738Z,3.20
2018-12-10T23:12:05.021Z,3.30
2018-12-10T23:14:33.314Z,3.20
2018-12-10T23:17:01.574Z,3.20
2018-12-10T23:19:29.849Z,3.20
2018-12-10T23:21:58.228Z,3.20
2018-12-10T23:24:26.545Z,3.20
2018-12-10T23:26:54.799Z,3.30
2018-12-10T23:29:23.057Z,3.30
2018-12-10T23:31:51.318Z,3.40
2018-12-10T23:34:19.585Z,3.40
2018-12-10T23:36:47.916Z,3.30
2018-12-10T23:39:16.277Z,3.40
2018-12-10T23:41:44.582Z,3.40
2018-12-10T23:44:17.087Z,3.30
2018-12-10T23:46:45.460Z,3.20
2018-12-10T23:49:13.838Z,3.10
2018-12-10T23:51:42.147Z,3.10
2018-12-10T23:54:10.425Z,3.00
2018-12-10T23:56:38.776Z,2.90
2018-12-10T23:59:07.083Z,2.90
